createdAt,value
2023-03-26T00:01:38.659Z,5.00
2023-03-26T00:04:07.784Z,5.60
2023-03-26T00:06:39.436Z,5.00
2023-03-26T00:09:10.285Z,5.50
2023-03-26T00:11:38.621Z,4.63
2023-03-26T00:14:07.034Z,5.38
2023-03-26T00:16:36.358Z,5.32
2023-03-26T00:19:04.949Z,5.47
2023-03-26T00:21:33.359Z,5.35
2023-03-26T00:24:07.449Z,6.00
2023-03-26T00:26:37.618Z,5.70
2023-03-26T00:29:06.962Z,6.70
2023-03-26T00:31:35.856Z,6.00
2023-03-26T00:34:05.659Z,6.15
2023-03-26T00:36:36.097Z,6.20
2023-03-26T00:39:05.698Z,6.18
2023-03-26T00:41:43.080Z,5.68
2023-03-26T00:44:13.565Z,6.50
2023-03-26T00:46:42.083Z,5.47
2023-03-26T00:49:11.060Z,6.05
2023-03-26T00:51:42.418Z,6.72
2023-03-26T00:54:11.000Z,6.90
2023-03-26T00:56:39.165Z,6.18
2023-03-26T00:59:09.194Z,6.78
2023-03-26T01:04:27.464Z,7.05
2023-03-26T01:07:00.868Z,7.13
2023-03-26T01:09:34.486Z,7.10
2023-03-26T01:12:06.552Z,7.20
2023-03-26T01:14:34.926Z,6.95
2023-03-26T01:17:06.904Z,7.30
2023-03-26T01:19:53.581Z,7.00
2023-03-26T01:22:25.199Z,7.30
2023-03-26T01:24:56.415Z,6.90
2023-03-26T01:27:39.432Z,6.88
2023-03-26T01:30:19.670Z,7.72
2023-03-26T01:32:50.586Z,7.03
2023-03-26T01:35:44.950Z,7.50
2023-03-26T01:38:50.061Z,8.18
2023-03-26T01:41:44.004Z,7.60
2023-03-26T01:44:29.344Z,6.93
2023-03-26T01:46:59.146Z,7.25
2023-03-26T01:49:31.430Z,7.78
2023-03-26T01:51:59.698Z,7.18
2023-03-26T01:54:31.325Z,7.93
2023-03-26T01:57:15.776Z,7.03
2023-03-26T02:00:12.455Z,7.60
2023-03-26T02:03:18.412Z,7.60
2023-03-26T02:06:03.714Z,7.35
2023-03-26T02:08:39.185Z,6.75
2023-03-26T02:11:13.124Z,6.68
2023-03-26T02:13:44.416Z,6.93
2023-03-26T02:16:16.425Z,7.00
2023-03-26T02:18:47.356Z,6.75
2023-03-26T02:21:21.444Z,7.47
2023-03-26T02:23:57.566Z,7.22
2023-03-26T02:26:26.070Z,7.05
2023-03-26T02:28:59.754Z,7.32
2023-03-26T02:31:27.700Z,7.35
2023-03-26T02:33:56.689Z,6.15
2023-03-26T02:36:27.353Z,6.78
2023-03-26T02:39:00.146Z,7.40
2023-03-26T02:41:29.763Z,7.70
2023-03-26T02:44:02.102Z,7.63
2023-03-26T02:46:48.532Z,6.78
2023-03-26T02:49:36.805Z,6.82
2023-03-26T02:52:06.656Z,6.97
2023-03-26T02:54:37.070Z,6.90
2023-03-26T02:57:07.791Z,7.38
2023-03-26T02:59:56.089Z,7.13
2023-03-26T03:02:48.225Z,7.38
2023-03-26T03:05:32.693Z,7.82
2023-03-26T03:08:22.309Z,7.45
2023-03-26T03:11:25.062Z,8.30
2023-03-26T03:13:54.182Z,7.82
2023-03-26T03:16:24.466Z,8.70
2023-03-26T03:18:58.140Z,8.77
2023-03-26T03:21:35.683Z,8.85
2023-03-26T03:24:03.886Z,7.97
2023-03-26T03:26:36.565Z,8.95
2023-03-26T03:29:26.496Z,8.15
2023-03-26T03:31:55.768Z,9.18
2023-03-26T03:34:39.041Z,8.13
2023-03-26T03:37:07.581Z,8.63
2023-03-26T03:39:50.615Z,9.05
2023-03-26T03:42:21.361Z,8.25
2023-03-26T03:44:51.705Z,8.93
2023-03-26T03:47:55.014Z,7.72
2023-03-26T03:50:33.029Z,7.90
2023-03-26T03:53:18.556Z,7.53
2023-03-26T03:55:53.296Z,8.40
2023-03-26T03:58:24.718Z,7.13
2023-03-26T04:01:01.036Z,8.65
2023-03-26T04:03:52.380Z,8.82
2023-03-26T04:06:25.245Z,7.97
2023-03-26T04:08:54.758Z,8.32
2023-03-26T04:11:23.305Z,8.30
2023-03-26T04:14:10.286Z,7.85
2023-03-26T04:16:56.971Z,7.63
2023-03-26T04:19:27.354Z,8.38
2023-03-26T04:21:55.589Z,7.78
2023-03-26T04:24:24.502Z,8.70
2023-03-26T04:27:30.289Z,9.05
2023-03-26T04:30:08.492Z,8.60
2023-03-26T04:32:38.591Z,8.52
2023-03-26T04:35:07.728Z,8.57
2023-03-26T04:37:41.083Z,8.27
2023-03-26T04:40:19.443Z,9.20
2023-03-26T04:43:26.503Z,8.02
2023-03-26T04:46:10.643Z,8.32
2023-03-26T04:48:47.785Z,8.27
2023-03-26T04:51:18.148Z,8.00
2023-03-26T04:53:58.273Z,7.95
2023-03-26T04:59:34.661Z,7.57
2023-03-26T05:02:09.607Z,7.85
2023-03-26T05:04:50.049Z,8.90
2023-03-26T05:07:22.467Z,7.32
2023-03-26T05:09:53.604Z,7.97
2023-03-26T05:12:34.551Z,8.40
2023-03-26T05:15:17.120Z,8.00
2023-03-26T05:17:59.982Z,7.97
2023-03-26T05:20:43.657Z,8.80
2023-03-26T05:23:11.885Z,8.40
2023-03-26T05:25:43.467Z,8.30
2023-03-26T05:28:24.367Z,8.85
2023-03-26T05:30:58.608Z,9.63
2023-03-26T05:33:29.689Z,8.75
2023-03-26T05:36:13.577Z,9.38
2023-03-26T05:38:49.366Z,9.10
2023-03-26T05:41:37.213Z,9.40
2023-03-26T05:44:06.098Z,8.75
2023-03-26T05:46:34.256Z,9.05
2023-03-26T05:49:02.465Z,9.25
2023-03-26T05:51:34.691Z,8.57
2023-03-26T05:54:22.810Z,8.23
2023-03-26T05:57:09.109Z,8.07
2023-03-26T05:59:56.348Z,9.18
2023-03-26T06:02:43.066Z,9.25
2023-03-26T06:05:37.285Z,8.35
2023-03-26T06:08:29.763Z,8.75
2023-03-26T06:11:07.288Z,9.18
2023-03-26T06:13:37.333Z,8.88
2023-03-26T06:16:06.113Z,9.02
2023-03-26T06:18:37.372Z,8.80
2023-03-26T06:21:18.034Z,8.50
2023-03-26T06:23:51.920Z,7.75
2023-03-26T06:26:49.173Z,8.75
2023-03-26T06:29:19.768Z,8.82
2023-03-26T06:31:53.808Z,9.35
2023-03-26T06:34:38.536Z,9.52
2023-03-26T06:37:06.408Z,8.57
2023-03-26T06:39:34.503Z,8.52
2023-03-26T06:42:16.089Z,9.52
2023-03-26T06:44:59.617Z,9.65
2023-03-26T06:47:46.286Z,9.80
2023-03-26T06:50:43.404Z,10.00
2023-03-26T06:53:26.448Z,9.85
2023-03-26T06:55:59.782Z,10.02
2023-03-26T06:58:53.667Z,8.95
2023-03-26T07:01:40.450Z,9.40
2023-03-26T07:10:19.286Z,9.18
2023-03-26T07:13:01.293Z,10.02
2023-03-26T07:16:04.646Z,9.25
2023-03-26T07:18:58.910Z,8.85
2023-03-26T07:21:34.660Z,10.00
2023-03-26T07:24:11.129Z,9.27
2023-03-26T07:27:19.881Z,11.52
2023-03-26T07:30:17.936Z,10.48
2023-03-26T07:33:41.468Z,11.48
2023-03-26T07:36:59.753Z,10.70
2023-03-26T07:39:59.808Z,10.60
2023-03-26T07:42:50.214Z,10.63
2023-03-26T07:45:43.455Z,9.75
2023-03-26T07:48:40.688Z,10.63
2023-03-26T07:51:18.790Z,9.73
2023-03-26T07:54:09.986Z,11.07
2023-03-26T07:57:13.597Z,11.88
2023-03-26T08:00:02.506Z,11.10
2023-03-26T08:03:10.018Z,10.88
2023-03-26T08:06:15.443Z,10.63
2023-03-26T08:09:38.384Z,9.65
2023-03-26T08:12:59.687Z,8.20
2023-03-26T08:15:41.646Z,9.25
2023-03-26T08:18:36.090Z,8.25
2023-03-26T08:21:18.671Z,8.18
2023-03-26T08:24:16.507Z,7.90
2023-03-26T08:27:05.535Z,8.23
2023-03-26T08:29:50.227Z,8.13
2023-03-26T08:32:19.952Z,7.63
2023-03-26T08:34:48.309Z,6.30
2023-03-26T08:37:16.416Z,5.32
2023-03-26T08:39:45.308Z,7.43
2023-03-26T08:42:19.019Z,7.03
2023-03-26T08:44:55.934Z,6.28
2023-03-26T08:48:03.290Z,6.47
2023-03-26T08:50:58.321Z,6.20
2023-03-26T08:53:45.202Z,5.93
2023-03-26T08:56:32.528Z,7.05
2023-03-26T08:59:37.811Z,5.43
2023-03-26T09:02:11.758Z,6.30
2023-03-26T09:04:53.846Z,5.40
2023-03-26T09:08:04.693Z,6.00
2023-03-26T09:10:52.381Z,6.15
2023-03-26T09:13:45.331Z,5.50
2023-03-26T09:16:13.097Z,4.78
2023-03-26T09:19:11.272Z,6.00
2023-03-26T09:22:37.987Z,6.00
2023-03-26T09:25:14.302Z,5.53
2023-03-26T09:28:09.659Z,3.88
2023-03-26T09:30:43.555Z,4.50
2023-03-26T09:33:26.436Z,4.57
2023-03-26T09:36:08.727Z,5.57
2023-03-26T09:39:00.451Z,5.20
2023-03-26T09:42:24.409Z,4.80
2023-03-26T09:45:29.233Z,4.60
2023-03-26T09:48:38.576Z,4.75
2023-03-26T09:51:09.286Z,3.95
2023-03-26T09:54:15.104Z,4.60
2023-03-26T09:57:26.331Z,3.58
2023-03-26T09:59:57.011Z,4.05
2023-03-26T10:02:45.850Z,5.30
2023-03-26T10:05:42.427Z,5.45
2023-03-26T10:08:48.163Z,2.67
2023-03-26T10:11:53.367Z,8.32
2023-03-26T10:14:37.059Z,4.50
2023-03-26T10:17:25.428Z,4.70
2023-03-26T10:20:13.083Z,5.28
2023-03-26T10:23:06.597Z,4.97
2023-03-26T10:25:48.130Z,4.43
2023-03-26T10:28:18.800Z,4.47
2023-03-26T10:31:07.859Z,3.03
2023-03-26T10:33:48.158Z,5.70
2023-03-26T10:36:35.477Z,4.85
2023-03-26T10:39:37.253Z,3.92
2023-03-26T10:42:46.782Z,3.17
2023-03-26T10:45:57.440Z,2.63
2023-03-26T10:48:28.369Z,4.55
2023-03-26T10:51:05.325Z,3.33
2023-03-26T10:53:51.881Z,2.80
2023-03-26T10:56:38.376Z,3.22
2023-03-26T10:59:13.615Z,2.60
2023-03-26T11:02:07.662Z,4.18
2023-03-26T11:05:17.754Z,2.90
2023-03-26T11:08:07.390Z,3.13
2023-03-26T11:11:02.927Z,2.72
2023-03-26T11:13:55.284Z,3.03
2023-03-26T11:17:00.111Z,2.90
2023-03-26T11:19:44.848Z,2.70
2023-03-26T11:22:19.287Z,3.15
2023-03-26T11:24:53.198Z,4.00
2023-03-26T11:27:56.066Z,3.20
2023-03-26T11:30:46.876Z,3.00
2023-03-26T11:33:32.784Z,8.73
2023-03-26T11:36:09.835Z,3.63
2023-03-26T11:39:10.733Z,2.75
2023-03-26T11:41:38.664Z,3.85
2023-03-26T11:44:23.878Z,3.05
2023-03-26T11:47:04.090Z,3.38
2023-03-26T11:49:32.923Z,3.75
2023-03-26T11:52:01.876Z,4.57
2023-03-26T11:54:29.831Z,4.43
2023-03-26T11:57:12.886Z,4.90
2023-03-26T11:59:57.225Z,3.38
2023-03-26T12:02:34.148Z,3.17
2023-03-26T12:05:15.456Z,2.85
2023-03-26T12:08:02.447Z,3.10
2023-03-26T12:10:39.184Z,3.63
2023-03-26T12:13:28.121Z,2.90
2023-03-26T12:16:04.518Z,1.92
2023-03-26T12:18:32.809Z,2.92
2023-03-26T12:21:14.064Z,2.83
2023-03-26T12:24:05.359Z,3.00
2023-03-26T12:26:46.373Z,3.25
2023-03-26T12:29:17.186Z,2.25
2023-03-26T12:32:13.218Z,2.58
2023-03-26T12:34:44.206Z,2.17
2023-03-26T12:37:36.964Z,2.35
2023-03-26T12:40:28.086Z,2.72
2023-03-26T12:44:52.618Z,2.83
2023-03-26T12:47:54.245Z,2.60
2023-03-26T12:48:42.757Z,1.95
2023-03-26T12:51:26.299Z,2.30
2023-03-26T12:54:03.492Z,2.58
2023-03-26T12:56:50.048Z,1.77
2023-03-26T12:59:53.972Z,2.80
2023-03-26T13:02:33.825Z,2.15
2023-03-26T13:05:29.695Z,2.08
2023-03-26T13:11:20.901Z,2.28
2023-03-26T13:14:06.450Z,1.80
2023-03-26T13:16:46.694Z,1.70
2023-03-26T13:19:45.142Z,3.25
2023-03-26T13:22:24.703Z,4.72
2023-03-26T13:25:08.121Z,3.63
2023-03-26T13:28:11.998Z,3.03
2023-03-26T13:30:56.958Z,2.45
2023-03-26T13:33:33.803Z,2.08
2023-03-26T13:36:24.965Z,1.80
2023-03-26T13:39:14.205Z,2.40
2023-03-26T13:41:55.800Z,1.70
2023-03-26T13:45:04.557Z,3.20
2023-03-26T13:47:41.764Z,2.30
2023-03-26T13:50:29.228Z,2.50
2023-03-26T13:53:05.952Z,2.30
2023-03-26T13:55:56.900Z,1.88
2023-03-26T13:58:42.420Z,2.22
2023-03-26T14:01:19.392Z,2.13
2023-03-26T14:04:17.822Z,2.83
2023-03-26T14:07:08.032Z,1.52
2023-03-26T14:09:38.886Z,2.05
2023-03-26T14:12:27.424Z,1.48
2023-03-26T14:15:16.425Z,2.50
2023-03-26T14:18:12.784Z,1.63
2023-03-26T14:21:09.590Z,2.10
2023-03-26T14:23:54.676Z,1.52
2023-03-26T14:26:41.633Z,3.15
2023-03-26T14:29:29.695Z,2.28
2023-03-26T14:32:12.765Z,2.25
2023-03-26T14:35:02.207Z,1.88
2023-03-26T14:37:39.998Z,2.05
2023-03-26T14:40:19.196Z,1.67
2023-03-26T14:43:17.475Z,1.55
2023-03-26T14:46:09.143Z,1.80
2023-03-26T14:48:39.934Z,1.98
2023-03-26T14:51:45.367Z,1.60
2023-03-26T14:54:17.232Z,1.60
2023-03-26T14:56:51.913Z,2.53
2023-03-26T14:59:47.719Z,2.40
2023-03-26T15:02:37.973Z,1.98
2023-03-26T15:05:29.227Z,1.95
2023-03-26T15:08:06.177Z,1.75
2023-03-26T15:11:02.250Z,1.60
2023-03-26T15:13:52.306Z,1.60
2023-03-26T15:16:29.570Z,1.90
2023-03-26T15:19:44.680Z,1.80
2023-03-26T15:22:52.900Z,1.65
2023-03-26T15:25:41.964Z,2.00
2023-03-26T15:28:46.582Z,2.05
2023-03-26T15:31:42.651Z,1.95
2023-03-26T15:34:20.333Z,1.67
2023-03-26T15:37:22.430Z,1.70
2023-03-26T15:40:31.489Z,1.45
2023-03-26T15:43:02.163Z,1.80
2023-03-26T15:45:38.216Z,1.98
2023-03-26T15:48:12.133Z,1.33
2023-03-26T15:50:45.742Z,1.67
2023-03-26T15:53:25.769Z,1.50
2023-03-26T15:56:01.958Z,1.55
2023-03-26T15:58:56.899Z,2.22
2023-03-26T16:01:39.699Z,2.47
2023-03-26T16:04:29.539Z,4.43
2023-03-26T16:07:21.800Z,3.50
2023-03-26T16:09:54.419Z,2.10
2023-03-26T16:12:47.885Z,4.30
2023-03-26T16:15:26.842Z,1.98
2023-03-26T16:18:40.142Z,4.50
2023-03-26T16:21:34.400Z,1.98
2023-03-26T16:24:10.275Z,1.85
2023-03-26T16:26:43.980Z,1.85
2023-03-26T16:29:15.703Z,2.20
2023-03-26T16:32:14.644Z,3.13
2023-03-26T16:34:58.295Z,2.85
2023-03-26T16:37:45.925Z,2.30
2023-03-26T16:40:20.803Z,1.67
2023-03-26T16:42:55.902Z,1.50
2023-03-26T16:45:59.395Z,2.30
2023-03-26T16:48:58.998Z,1.70
2023-03-26T16:51:34.087Z,2.90
2023-03-26T16:54:22.201Z,2.00
2023-03-26T16:57:07.418Z,1.90
2023-03-26T17:00:07.350Z,3.25
2023-03-26T17:02:52.349Z,1.33
2023-03-26T17:05:44.884Z,1.65
2023-03-26T17:08:37.415Z,1.55
2023-03-26T17:11:21.496Z,1.92
2023-03-26T17:14:17.140Z,1.30
2023-03-26T17:17:02.858Z,1.80
2023-03-26T17:19:46.649Z,1.58
2023-03-26T17:22:26.727Z,2.45
2023-03-26T17:25:19.854Z,1.75
2023-03-26T17:28:15.568Z,1.98
2023-03-26T17:30:54.574Z,2.47
2023-03-26T17:33:38.831Z,1.40
2023-03-26T17:36:12.701Z,1.70
2023-03-26T17:38:45.318Z,1.17
2023-03-26T17:41:17.840Z,1.23
2023-03-26T17:43:51.301Z,2.03
2023-03-26T17:46:34.635Z,1.65
2023-03-26T17:49:13.202Z,1.90
2023-03-26T17:51:58.628Z,1.60
2023-03-26T17:54:46.552Z,1.20
2023-03-26T17:57:28.308Z,2.17
2023-03-26T18:00:00.956Z,1.92
2023-03-26T18:02:42.422Z,1.55
2023-03-26T18:05:15.362Z,1.77
2023-03-26T18:08:12.882Z,2.03
2023-03-26T18:11:08.091Z,2.58
2023-03-26T18:14:05.419Z,3.60
2023-03-26T18:16:54.678Z,1.98
2023-03-26T18:19:25.013Z,2.85
2023-03-26T18:22:04.820Z,3.08
2023-03-26T18:24:38.134Z,2.28
2023-03-26T18:27:12.515Z,4.00
2023-03-26T18:30:02.856Z,3.40
2023-03-26T18:32:33.991Z,2.40
2023-03-26T18:35:21.704Z,2.10
2023-03-26T18:37:53.469Z,2.28
2023-03-26T18:40:26.194Z,2.35
2023-03-26T18:42:58.052Z,2.70
2023-03-26T18:45:29.283Z,3.00
2023-03-26T18:48:01.276Z,1.60
2023-03-26T18:50:37.223Z,1.80
2023-03-26T18:53:10.212Z,2.45
2023-03-26T18:55:39.847Z,1.95
2023-03-26T18:58:30.198Z,2.50
2023-03-26T19:01:03.898Z,3.80
2023-03-26T19:03:36.076Z,2.50
2023-03-26T19:06:08.539Z,1.88
2023-03-26T19:08:39.019Z,1.88
2023-03-26T19:11:09.146Z,1.50
2023-03-26T19:13:42.703Z,1.90
2023-03-26T19:16:24.627Z,2.13
2023-03-26T19:18:53.280Z,1.05
2023-03-26T19:21:23.528Z,1.33
2023-03-26T19:23:55.828Z,1.42
2023-03-26T19:26:25.537Z,1.67
2023-03-26T19:28:56.597Z,1.15
2023-03-26T19:31:27.935Z,1.60
2023-03-26T19:34:00.685Z,1.42
2023-03-26T19:36:31.702Z,1.75
2023-03-26T19:38:59.700Z,1.08
2023-03-26T19:41:36.770Z,1.58
2023-03-26T19:44:27.040Z,1.38
2023-03-26T19:47:05.464Z,2.03
2023-03-26T19:49:48.586Z,1.95
2023-03-26T19:52:32.665Z,1.70
2023-03-26T19:55:03.864Z,1.42
2023-03-26T19:57:36.390Z,1.05
2023-03-26T20:00:15.300Z,1.73
2023-03-26T20:02:46.459Z,2.03
2023-03-26T20:05:24.532Z,2.35
2023-03-26T20:07:56.012Z,3.13
2023-03-26T20:10:24.626Z,3.70
2023-03-26T20:12:52.996Z,2.33
2023-03-26T20:15:30.211Z,2.40
2023-03-26T20:18:00.985Z,2.78
2023-03-26T20:20:30.734Z,2.13
2023-03-26T20:22:59.155Z,1.60
2023-03-26T20:25:35.034Z,1.85
2023-03-26T20:28:03.186Z,1.70
2023-03-26T20:30:37.323Z,2.20
2023-03-26T20:33:12.481Z,1.67
2023-03-26T20:35:45.509Z,2.00
2023-03-26T20:38:13.545Z,1.48
2023-03-26T20:40:42.352Z,1.48
2023-03-26T20:43:12.940Z,1.38
2023-03-26T20:45:41.817Z,1.38
2023-03-26T20:48:12.517Z,1.48
2023-03-26T20:50:50.422Z,1.70
2023-03-26T20:53:20.325Z,1.55
2023-03-26T20:55:49.749Z,1.20
2023-03-26T20:58:31.147Z,2.30
2023-03-26T21:01:00.900Z,1.88
2023-03-26T21:03:30.292Z,1.40
2023-03-26T21:06:02.488Z,1.80
2023-03-26T21:08:37.073Z,1.60
2023-03-26T21:11:15.689Z,1.80
2023-03-26T21:14:21.190Z,1.30
2023-03-26T21:16:49.618Z,1.45
2023-03-26T21:19:17.736Z,1.50
2023-03-26T21:22:12.086Z,1.83
2023-03-26T21:25:05.406Z,2.28
2023-03-26T21:27:37.232Z,1.65
2023-03-26T21:30:13.800Z,2.28
2023-03-26T21:32:45.455Z,1.60
2023-03-26T21:35:14.947Z,2.03
2023-03-26T21:37:45.604Z,1.55
2023-03-26T21:40:16.519Z,1.60
2023-03-26T21:42:50.548Z,2.20
2023-03-26T21:45:20.014Z,1.90
2023-03-26T21:47:48.918Z,2.25
2023-03-26T21:50:19.369Z,1.95
2023-03-26T21:52:47.693Z,1.63
2023-03-26T21:55:24.368Z,2.00
2023-03-26T21:57:57.991Z,1.52
2023-03-26T22:00:41.156Z,2.03
2023-03-26T22:06:01.564Z,2.40
2023-03-26T22:08:41.494Z,1.85
2023-03-26T22:11:12.139Z,1.50
2023-03-26T22:13:40.066Z,1.50
2023-03-26T22:16:09.685Z,1.70
2023-03-26T22:18:37.797Z,1.40
2023-03-26T22:21:06.008Z,1.20
2023-03-26T22:23:38.257Z,2.35
2023-03-26T22:26:06.569Z,1.60
2023-03-26T22:28:34.485Z,1.85
2023-03-26T22:31:09.218Z,1.80
2023-03-26T22:33:38.316Z,2.25
2023-03-26T22:36:22.641Z,2.17
2023-03-26T22:38:55.193Z,3.40
2023-03-26T22:41:23.628Z,3.00
2023-03-26T22:43:55.949Z,3.03
2023-03-26T22:46:24.869Z,1.67
2023-03-26T22:48:52.901Z,1.77
2023-03-26T22:51:20.884Z,1.70
2023-03-26T22:53:48.890Z,1.40
2023-03-26T22:56:17.150Z,1.48
2023-03-26T22:58:48.173Z,1.70
2023-03-26T23:01:21.471Z,1.77
2023-03-26T23:03:50.913Z,1.73
2023-03-26T23:06:19.562Z,1.75
2023-03-26T23:08:47.535Z,2.25
2023-03-26T23:11:18.669Z,1.27
2023-03-26T23:13:47.692Z,1.30
2023-03-26T23:16:17.410Z,1.60
2023-03-26T23:18:48.387Z,1.70
2023-03-26T23:21:19.151Z,1.60
2023-03-26T23:23:48.686Z,1.92
2023-03-26T23:26:16.730Z,1.63
2023-03-26T23:28:44.729Z,2.03
2023-03-26T23:31:13.184Z,1.95
2023-03-26T23:33:46.025Z,1.75
2023-03-26T23:36:18.337Z,1.40
2023-03-26T23:38:48.126Z,1.40
2023-03-26T23:41:19.295Z,1.55
2023-03-26T23:43:53.530Z,1.45
2023-03-26T23:46:33.112Z,1.70
2023-03-26T23:49:04.741Z,2.00
2023-03-26T23:51:33.472Z,1.65
2023-03-26T23:54:02.451Z,1.73
2023-03-26T23:56:31.803Z,1.23
2023-03-26T23:59:00.651Z,1.60
